Latest Weather Observations for Bunbury

IDW60801

Issued at 6:05 pm WST Tuesday 30 September 2014 (issued every 30 minutes, with the page automatically refreshed every 10 minutes)

About weather observations | Map of weather stations | Latest weather observations for WA | Other Formats
Station Details ID: 009965 Name: BUNBURY Lat: -33.36 Lon: 115.64 Height: 5.2 m
Data from the previous 72 hours. | See also: Recent months at Bunbury
Date/Time
WST
Temp
°C
App
Temp
°C
Dew
Point
Rel
Hum
%
Delta-T
°C
Wind Press
QNH
hPa
Press
MSL
hPa
Rain
since 9 am
mm
Dir
 
Spd
km/h
Gust
km/h
Spd
kts
Gust
kts
30/06:00pm 17.7 16.7 11.0 65 3.6 SSE 7 11 4 6 1022.2 1022.2 0.0
30/05:30pm 18.9 17.1 10.7 59 4.4 SE 11 19 6 10 1022.1 1022.1 0.0
30/05:00pm 19.8 17.7 11.0 57 4.8 ESE 13 19 7 10 1022.0 1022.0 0.0
30/04:30pm 20.2 18.1 11.1 56 5.0 ESE 13 20 7 11 1021.8 1021.8 0.0
30/04:00pm 20.4 18.2 10.8 54 5.2 ESE 13 19 7 10 1021.9 1021.9 0.0
30/03:30pm 20.7 19.4 11.3 55 5.2 SE 9 20 5 11 1022.0 1022.0 0.0
30/03:00pm 20.0 17.9 11.0 56 4.9 ESE 13 20 7 11 1022.1 1022.1 0.0
30/02:30pm 20.4 18.7 11.3 56 5.0 E 11 19 6 10 1022.3 1022.3 0.0
30/02:00pm 20.7 19.4 11.3 55 5.2 E 9 15 5 8 1022.6 1022.6 0.0
30/01:30pm 20.0 17.9 9.9 52 5.4 ENE 11 17 6 9 1022.7 1022.7 0.0
30/01:00pm 19.5 17.8 9.7 53 5.2 E 9 15 5 8 1023.2 1023.2 0.0
30/12:30pm 19.0 17.2 9.5 54 5.0 SE 9 15 5 8 1023.6 1023.6 0.0
30/12:00pm 18.3 16.6 9.9 58 4.4 ESE 9 17 5 9 1023.8 1023.8 0.0
30/11:30am 18.6 17.2 9.7 56 4.7 SE 7 13 4 7 1023.9 1023.9 0.0
30/11:00am 18.3 16.2 9.6 57 4.6 E 11 17 6 9 1024.0 1024.0 0.0
30/10:30am 17.8 15.7 9.9 60 4.2 SE 11 19 6 10 1024.0 1024.0 0.0
30/10:00am 16.6 14.6 10.2 66 3.4 ESE 11 15 6 8 1024.3 1024.3 0.0
30/09:30am 16.1 14.6 10.6 70 2.9 SE 9 15 5 8 1024.2 1024.2 0.0
30/09:00am 16.5 15.2 10.1 66 3.4 ESE 7 11 4 6 1024.2 1024.2 0.2
30/08:30am 16.8 15.8 11.1 69 3.1 ESE 7 11 4 6 1023.9 1023.9 0.2
30/08:00am 15.7 14.4 11.3 75 2.3 SE 9 13 5 7 1023.7 1023.7 0.2
30/07:30am 14.2 12.8 10.8 80 1.8 ESE 9 13 5 7 1023.5 1023.5 0.2
30/07:00am 12.8 11.9 10.7 87 1.1 ESE 6 9 3 5 1023.3 1023.3 0.2
30/06:30am 10.2 10.0 9.1 93 0.5 CALM 0 0 0 0 1023.0 1023.0 0.2
30/06:00am 10.1 9.9 8.9 92 0.6 CALM 0 4 0 2 1022.7 1022.7 0.2
30/05:30am 11.6 10.6 10.2 91 0.7 S 6 7 3 4 1022.5 1022.5 0.2
30/05:00am 11.8 11.1 10.2 90 0.8 S 4 7 2 4 1022.4 1022.4 0.2
30/04:30am 12.9 12.5 11.1 89 0.9 SSE 4 6 2 3 1022.1 1022.1 0.2
30/04:00am 12.8 13.2 11.2 90 0.8 CALM 0 0 0 0 1021.8 1021.8 0.2
30/03:30am 13.0 13.4 11.1 88 1.0 CALM 0 2 0 1 1021.5 1021.5 0.2
30/03:00am 13.5 13.0 10.9 84 1.4 S 4 6 2 3 1021.2 1021.2 0.2
30/02:30am 12.8 13.1 11.0 89 0.9 CALM 0 0 0 0 1021.1 1021.1 0.2
30/02:00am 13.2 12.7 10.9 86 1.2 S 4 6 2 3 1021.2 1021.2 0.2
30/01:30am 13.4 13.0 11.1 86 1.2 S 4 6 2 3 1021.2 1021.2 0.2
30/01:00am 13.4 12.9 10.9 85 1.3 S 4 6 2 3 1021.1 1021.1 0.2
30/12:30am 13.6 13.2 11.0 84 1.4 S 4 6 2 3 1021.1 1021.1 0.2
30/12:00am 13.5 12.6 10.7 83 1.5 SSW 6 7 3 4 1021.3 1021.3 0.2
 
Date/Time
WST
Temp
°C
App
Temp
°C
Dew
Point
Rel
Hum
%
Delta-T
°C
Wind Press
QNH
hPa
Press
MSL
hPa
Rain
since 9 am
mm
Dir
 
Spd
km/h
Gust
km/h
Spd
kts
Gust
kts
29/11:30pm 13.8 13.3 10.8 82 1.6 S 4 6 2 3 1021.3 1021.3 0.2
29/11:00pm 13.7 12.8 10.7 82 1.6 S 6 9 3 5 1021.3 1021.3 0.2
29/10:30pm 13.3 12.2 10.1 81 1.7 S 6 7 3 4 1021.2 1021.2 0.2
29/10:00pm 13.8 12.8 10.2 79 1.9 S 6 11 3 6 1021.2 1021.2 0.2
29/09:30pm 15.0 14.1 10.6 75 2.3 SSW 6 9 3 5 1021.1 1021.1 0.2
29/09:00pm 14.9 14.3 10.3 74 2.4 S 4 7 2 4 1021.2 1021.2 0.2
29/08:30pm 14.9 13.9 10.3 74 2.4 SSW 6 9 3 5 1021.0 1021.0 0.2
29/08:00pm 15.5 14.0 10.7 73 2.5 SSW 9 17 5 9 1020.7 1020.6 0.2
29/07:30pm 15.7 14.7 10.9 73 2.6 SW 7 13 4 7 1020.3 1020.2 0.2
29/07:00pm 15.1 14.1 10.9 76 2.2 SW 7 13 4 7 1019.5 1019.4 0.2
29/06:30pm 15.9 14.3 11.5 75 2.4 SW 11 15 6 8 1019.5 1019.4 0.2
29/06:00pm 15.9 14.0 11.9 77 2.2 SW 13 24 7 13 1019.2 1019.1 0.2
29/05:30pm 16.8 14.1 10.2 65 3.5 W 15 19 8 10 1018.6 1018.5 0.2
29/05:00pm 18.0 14.8 10.1 60 4.2 WSW 17 22 9 12 1018.4 1018.3 0.2
29/04:30pm 17.8 14.3 10.2 61 4.0 WSW 19 26 10 14 1018.2 1018.1 0.2
29/04:00pm 18.7 15.9 11.3 62 4.0 WSW 17 26 9 14 1018.0 1017.9 0.2
29/03:30pm 19.3 16.9 11.3 60 4.4 WSW 15 26 8 14 1017.6 1017.5 0.2
29/03:00pm 19.0 16.0 11.8 63 4.0 WSW 19 28 10 15 1017.3 1017.2 0.2
29/02:30pm 19.2 16.1 12.2 64 3.9 WSW 20 32 11 17 1017.2 1017.1 0.2
29/02:00pm 19.5 16.6 12.8 65 3.8 W 20 30 11 16 1017.4 1017.3 0.2
29/01:30pm 19.4 16.5 12.4 64 3.9 WSW 19 30 10 16 1017.4 1017.3 0.2
29/01:00pm 18.8 15.3 12.3 66 3.6 WSW 22 30 12 16 1017.3 1017.2 0.2
29/12:30pm 18.8 15.6 13.2 70 3.2 W 22 30 12 16 1017.0 1016.9 0.2
29/12:00pm 19.0 16.4 13.2 69 3.3 W 19 28 10 15 1017.1 1017.0 0.2
29/11:30am 18.7 16.5 13.3 71 3.1 WSW 17 28 9 15 1017.3 1017.2 0.2
29/11:00am 18.5 15.8 12.9 70 3.1 WSW 19 28 10 15 1017.4 1017.3 0.2
29/10:30am 17.9 14.9 12.6 71 3.0 WSW 20 30 11 16 1017.3 1017.2 0.0
29/10:00am 18.2 16.5 13.7 75 2.6 W 15 22 8 12 1017.1 1017.0 0.0
29/09:30am 17.1 14.1 12.6 75 2.5 WSW 20 30 11 16 1017.1 1017.0 0.0
29/09:00am 16.0 13.8 13.3 84 1.5 WSW 17 28 9 15 1017.0 1016.9 6.6
29/08:30am 16.2 14.7 15.4 95 0.5 WSW 17 28 9 15 1016.7 1016.6 6.6
29/08:00am 16.0 15.2 15.2 95 0.5 WSW 13 22 7 12 1016.3 1016.2 6.4
29/07:30am 15.1 14.1 13.3 89 1.0 W 11 19 6 10 1016.0 1015.9 6.0
29/07:00am 15.6 13.6 12.7 83 1.6 WSW 15 24 8 13 1015.6 1015.5 5.8
29/06:30am 15.3 15.0 13.2 87 1.2 WSW 7 15 4 8 1015.4 1015.3 5.8
29/06:00am 14.6 12.9 12.5 87 1.1 W 13 20 7 11 1015.0 1014.9 5.8
29/05:30am 15.3 14.4 12.6 84 1.5 W 9 15 5 8 1014.5 1014.4 5.4
29/05:00am 15.3 13.9 12.2 82 1.7 W 11 19 6 10 1014.3 1014.2 5.4
29/04:30am 15.3 13.5 12.1 81 1.7 W 13 20 7 11 1014.1 1014.0 5.4
29/04:00am 15.1 13.7 12.1 82 1.6 W 11 19 6 10 1014.3 1014.2 5.4
29/03:30am 14.8 13.3 11.8 82 1.6 W 11 17 6 9 1014.3 1014.2 5.4
29/03:00am 15.2 13.0 12.0 81 1.7 W 15 28 8 15 1014.5 1014.4 5.4
29/02:30am 15.4 13.7 12.3 82 1.7 WSW 13 24 7 13 1014.5 1014.4 5.4
29/02:00am 15.0 12.9 12.3 84 1.5 W 15 22 8 12 1014.6 1014.5 5.4
29/01:30am 14.7 14.0 13.2 91 0.8 W 9 15 5 8 1014.9 1014.8 5.4
29/01:00am 14.4 12.6 13.4 94 0.6 W 15 26 8 14 1015.1 1015.0 5.4
29/12:30am 14.7 13.0 13.6 93 0.6 W 15 26 8 14 1015.2 1015.1 4.8
29/12:00am 14.8 12.0 13.2 90 0.9 W 20 28 11 15 1015.3 1015.2 4.4
 
Date/Time
WST
Temp
°C
App
Temp
°C
Dew
Point
Rel
Hum
%
Delta-T
°C
Wind Press
QNH
hPa
Press
MSL
hPa
Rain
since 9 am
mm
Dir
 
Spd
km/h
Gust
km/h
Spd
kts
Gust
kts
28/11:30pm 14.9 14.0 13.6 92 0.7 WNW 11 17 6 9 1015.3 1015.2 3.6
28/11:00pm 14.5 13.5 13.5 94 0.6 WNW 11 19 6 10 1015.5 1015.4 3.6
28/10:30pm 15.3 13.8 13.2 87 1.2 W 13 22 7 12 1015.6 1015.5 0.4
28/10:00pm 15.2 13.4 13.2 88 1.1 WNW 15 22 8 12 1015.8 1015.7 0.4
28/09:30pm 14.7 12.0 12.9 89 1.0 W 19 33 10 18 1016.0 1015.9 0.4
28/09:00pm 15.7 14.7 13.5 87 1.2 W 11 20 6 11 1016.1 1016.0 0.4
28/08:30pm 15.2 13.2 12.7 85 1.4 W 15 22 8 12 1016.2 1016.1 0.4
28/08:00pm 15.8 14.1 13.6 87 1.2 W 15 26 8 14 1016.3 1016.2 0.4
28/07:30pm 15.1 14.5 13.5 90 0.9 W 9 15 5 8 1016.0 1015.9 0.4
28/07:00pm 14.7 11.5 13.2 91 0.8 W 22 30 12 16 1016.0 1015.9 0.4
28/06:30pm 15.4 13.2 13.4 88 1.1 WNW 17 24 9 13 1015.7 1015.6 0.0
28/06:00pm 16.4 15.0 13.3 82 1.7 W 13 19 7 10 1015.6 1015.5 0.0
28/05:30pm 16.3 14.7 13.8 85 1.4 W 15 26 8 14 1015.6 1015.5 0.0
28/05:00pm 17.4 15.7 12.3 72 2.8 NW 13 20 7 11 1015.5 1015.4 0.0
28/04:30pm 18.6 16.5 13.5 72 2.9 WNW 17 22 9 12 1015.4 1015.3 0.0
28/04:00pm 18.9 17.1 13.3 70 3.2 W 15 22 8 12 1015.4 1015.3 0.0
28/03:30pm 19.5 16.8 13.0 66 3.7 NW 19 26 10 14 1015.2 1015.1 0.0
28/03:00pm 19.9 17.5 12.7 63 4.1 W 17 28 9 15 1015.3 1015.2 0.0
28/02:30pm 19.3 16.2 12.1 63 4.0 W 20 30 11 16 1015.3 1015.2 0.0
28/02:00pm 19.4 17.0 12.7 65 3.8 WNW 17 26 9 14 1015.3 1015.2 0.0
28/01:30pm 20.0 17.3 13.0 64 4.0 W 19 28 10 15 1015.3 1015.2 0.0
28/01:00pm 19.3 16.4 12.8 66 3.7 W 20 26 11 14 1015.4 1015.3 0.0
28/12:30pm 19.2 16.2 12.7 66 3.6 W 20 26 11 14 1015.4 1015.3 0.0
28/12:00pm 18.9 15.4 12.2 65 3.7 W 22 30 12 16 1015.6 1015.5 0.0
28/11:30am 19.0 16.0 12.7 67 3.5 W 20 32 11 17 1015.6 1015.5 0.0
28/11:00am 18.6 15.0 11.9 65 3.7 W 22 32 12 17 1015.5 1015.4 0.0
28/10:30am 19.1 16.2 12.8 67 3.5 W 20 30 11 16 1015.5 1015.4 0.0
28/10:00am 18.6 15.5 12.1 66 3.6 W 20 30 11 16 1015.5 1015.4 0.0
28/09:30am 18.1 14.9 11.9 67 3.4 W 20 33 11 18 1015.4 1015.3 0.0
28/09:00am 17.7 14.0 11.5 67 3.4 W 22 33 12 18 1015.1 1015.0 2.2
28/08:30am 17.5 13.9 12.0 70 3.0 W 22 33 12 18 1014.9 1014.8 2.2
28/08:00am 16.9 12.8 11.4 70 3.0 W 24 37 13 20 1014.7 1014.6 2.2
28/07:30am 15.9 12.3 11.9 77 2.2 W 22 33 12 18 1014.5 1014.4 2.2
28/07:00am 15.9 12.3 10.4 70 2.9 W 20 32 11 17 1014.1 1014.0 2.2
28/06:30am 15.3 11.7 10.5 73 2.5 W 20 33 11 18 1013.7 1013.7 2.2
28/06:00am 15.0 11.4 10.6 75 2.3 W 20 35 11 19 1013.6 1013.6 2.2
28/05:30am 13.5 8.7 11.6 88 1.0 W 28 50 15 27 1013.4 1013.4 2.2
28/05:27am 13.4 8.6 11.5 88 1.0 W 28 50 15 27 1013.4 1013.4 2.2
28/05:00am 15.0 10.6 10.4 74 2.4 W 24 37 13 20 1013.1 1013.1 2.0
28/04:30am 14.6 9.6 11.0 79 1.9 W 28 44 15 24 1013.0 1013.0 2.0
28/04:10am 14.0 8.9 10.6 80 1.8 W 28 50 15 27 1013.1 1013.1 2.0
28/04:00am 14.4 9.7 10.6 78 2.0 W 26 41 14 22 1012.9 1012.9 2.0
28/03:30am 14.0 9.5 11.3 84 1.4 W 26 41 14 22 1013.0 1013.0 1.8
28/03:00am 15.2 11.2 10.6 74 2.4 W 22 37 12 20 1012.7 1012.7 1.8
28/02:30am 14.5 9.2 9.9 74 2.4 W 28 41 15 22 1012.8 1012.8 1.8
28/02:04am 15.2 9.9 10.0 71 2.7 W 28 56 15 30 1012.9 1012.9 1.6
28/02:00am 15.4 10.0 9.5 68 3.0 W 28 41 15 22 1012.7 1012.7 1.6
28/01:30am 15.9 10.5 9.6 66 3.3 W 28 44 15 24 1012.7 1012.7 1.6
28/01:00am 15.5 10.5 9.4 67 3.1 W 26 41 14 22 1012.6 1012.6 1.6
28/12:30am 15.2 10.2 8.2 63 3.5 WNW 24 39 13 21 1012.6 1012.6 1.6
28/12:00am 14.7 10.2 9.9 73 2.5 W 24 41 13 22 1012.8 1012.8 1.6
 
Date/Time
WST
Temp
°C
App
Temp
°C
Dew
Point
Rel
Hum
%
Delta-T
°C
Wind Press
QNH
hPa
Press
MSL
hPa
Rain
since 9 am
mm
Dir
 
Spd
km/h
Gust
km/h
Spd
kts
Gust
kts
27/11:30pm 15.0 11.0 9.1 68 3.0 W 20 30 11 16 1012.8 1012.8 1.6
27/11:00pm 14.2 8.6 8.8 70 2.7 W 28 48 15 26 1013.0 1013.0 1.6
27/10:50pm 14.7 9.2 9.3 70 2.8 W 28 48 15 26 1013.1 1013.1 1.6
27/10:30pm 14.9 9.8 7.7 62 3.6 W 24 37 13 20 1012.8 1012.8 1.6
27/10:00pm 14.6 9.7 8.5 67 3.1 W 24 41 13 22 1012.9 1012.9 1.6
27/09:30pm 14.5 9.4 7.5 63 3.5 W 24 37 13 20 1012.8 1012.8 1.6
27/09:00pm 14.4 9.3 7.5 63 3.4 W 24 37 13 20 1012.7 1012.7 1.6
27/08:30pm 14.5 8.5 7.1 61 3.6 W 28 41 15 22 1012.6 1012.6 1.6
27/08:00pm 14.6 9.6 7.9 64 3.3 W 24 41 13 22 1012.3 1012.3 1.6
27/07:30pm 14.3 8.8 7.4 63 3.4 W 26 41 14 22 1012.0 1012.0 1.6
27/07:00pm 14.1 8.1 6.9 62 3.5 W 28 41 15 22 1011.6 1011.6 1.6
27/06:30pm 14.4 8.5 7.5 63 3.4 W 28 43 15 23 1011.2 1011.2 1.6

Other Formats:

Comma delimited format used in spreadsheet applications
http://www.bom.gov.au/fwo/IDW60801/IDW60801.94604.axf

JavaScript Object Notation format (JSON) in row-major order
http://www.bom.gov.au/fwo/IDW60801/IDW60801.94604.json